Flaherty, Kentucky
Current Conditions -  °F | °C
As of 9:58 PM on Sunday 23 Nov 2014 (Local Time) from KFTK Reporting Station
Overcast Overcast  
Wind Chill: 58°   Ceiling: 1500
Heat Index: 58°   Visibility: 10mi
Dew Point: 55°   Wind: 18mph
Humidity: 91%   Direction: 170°S
Pressure: 29.3"   Gusts: 25mph
Location:  37.8337°N, 86.0614°W
Report Text: KFTK 240258Z 17016G22KT 10SM OVC015 14/13 A2930 RMK AO2A PK WND 17026/30 SLP923 P0000 60002 T01440130 57028
Loading
Personal Weather Stations






























Interactive Weather Map New forecast layout! Learn more

10-Day Weather Forecast

Advertisements
Track Severe Weather on mobile